sensor_id;sensor_type;location;lat;lon;timestamp;temperature;humidity
19586;DHT22;9939;49.246;9.106;2024-01-16T00:02:00;-1.90;99.90
19586;DHT22;9939;49.246;9.106;2024-01-16T00:04:27;-1.80;99.90
19586;DHT22;9939;49.246;9.106;2024-01-16T00:06:56;-1.80;99.90
19586;DHT22;9939;49.246;9.106;2024-01-16T00:09:23;-1.90;99.90
19586;DHT22;9939;49.246;9.106;2024-01-16T00:11:50;-1.90;99.90
19586;DHT22;9939;49.246;9.106;2024-01-16T00:14:18;-2.10;99.90
19586;DHT22;9939;49.246;9.106;2024-01-16T00:16:46;-2.10;99.90
19586;DHT22;9939;49.246;9.106;2024-01-16T00:19:13;-2.10;99.90
19586;DHT22;9939;49.246;9.106;2024-01-16T00:21:41;-2.00;99.90
19586;DHT22;9939;49.246;9.106;2024-01-16T00:24:08;-2.20;99.90
19586;DHT22;9939;49.246;9.106;2024-01-16T00:26:35;-2.10;99.90
19586;DHT22;9939;49.246;9.106;2024-01-16T00:29:03;-2.10;99.90
19586;DHT22;9939;49.246;9.106;2024-01-16T00:31:30;-2.20;99.90
19586;DHT22;9939;49.246;9.106;2024-01-16T00:33:57;-2.20;99.90
19586;DHT22;9939;49.246;9.106;2024-01-16T00:36:24;-2.10;99.90
19586;DHT22;9939;49.246;9.106;2024-01-16T00:38:51;-2.10;99.90
19586;DHT22;9939;49.246;9.106;2024-01-16T00:41:18;-2.00;99.90
19586;DHT22;9939;49.246;9.106;2024-01-16T00:43:45;-2.00;99.90
19586;DHT22;9939;49.246;9.106;2024-01-16T00:46:12;-2.00;99.90
19586;DHT22;9939;49.246;9.106;2024-01-16T00:48:39;-2.10;99.90
19586;DHT22;9939;49.246;9.106;2024-01-16T00:51:06;-2.10;99.90
19586;DHT22;9939;49.246;9.106;2024-01-16T00:53:33;-2.20;99.90
19586;DHT22;9939;49.246;9.106;2024-01-16T00:56:00;-2.30;99.90
19586;DHT22;9939;49.246;9.106;2024-01-16T00:58:27;-2.40;99.90
19586;DHT22;9939;49.246;9.106;2024-01-16T01:00:54;-2.30;99.90
19586;DHT22;9939;49.246;9.106;2024-01-16T01:03:21;-2.40;99.90
19586;DHT22;9939;49.246;9.106;2024-01-16T01:05:48;-2.40;99.90
19586;DHT22;9939;49.246;9.106;2024-01-16T01:08:15;-2.50;99.90
19586;DHT22;9939;49.246;9.106;2024-01-16T01:10:42;-2.50;99.90
19586;DHT22;9939;49.246;9.106;2024-01-16T01:13:10;-2.50;99.90
19586;DHT22;9939;49.246;9.106;2024-01-16T01:15:37;-2.60;99.90
19586;DHT22;9939;49.246;9.106;2024-01-16T01:18:04;-2.50;99.90
19586;DHT22;9939;49.246;9.106;2024-01-16T01:20:31;-2.70;99.90
19586;DHT22;9939;49.246;9.106;2024-01-16T01:22:58;-2.90;99.90
19586;DHT22;9939;49.246;9.106;2024-01-16T01:25:26;-2.80;99.90
19586;DHT22;9939;49.246;9.106;2024-01-16T01:27:53;-2.80;99.90
19586;DHT22;9939;49.246;9.106;2024-01-16T01:30:20;-2.90;99.90
19586;DHT22;9939;49.246;9.106;2024-01-16T01:32:47;-2.80;99.90
19586;DHT22;9939;49.246;9.106;2024-01-16T01:35:17;-2.60;99.90
19586;DHT22;9939;49.246;9.106;2024-01-16T01:37:44;-2.60;99.90
19586;DHT22;9939;49.246;9.106;2024-01-16T01:40:11;-2.70;99.90
19586;DHT22;9939;49.246;9.106;2024-01-16T01:42:41;-2.70;99.90
19586;DHT22;9939;49.246;9.106;2024-01-16T01:45:10;-3.00;99.90
19586;DHT22;9939;49.246;9.106;2024-01-16T01:47:41;-2.90;99.90
19586;DHT22;9939;49.246;9.106;2024-01-16T01:50:10;-2.90;99.90
19586;DHT22;9939;49.246;9.106;2024-01-16T01:52:39;-2.60;99.90
19586;DHT22;9939;49.246;9.106;2024-01-16T01:55:11;-2.60;99.90
19586;DHT22;9939;49.246;9.106;2024-01-16T01:57:39;-2.70;99.90
19586;DHT22;9939;49.246;9.106;2024-01-16T02:00:07;-2.60;99.90
19586;DHT22;9939;49.246;9.106;2024-01-16T02:02:43;-2.70;99.90
19586;DHT22;9939;49.246;9.106;2024-01-16T02:05:10;-2.50;99.90
19586;DHT22;9939;49.246;9.106;2024-01-16T02:07:38;-2.50;99.90
19586;DHT22;9939;49.246;9.106;2024-01-16T02:10:05;-2.50;99.90
19586;DHT22;9939;49.246;9.106;2024-01-16T02:12:33;-2.60;99.90
19586;DHT22;9939;49.246;9.106;2024-01-16T02:15:00;-2.40;99.90
19586;DHT22;9939;49.246;9.106;2024-01-16T02:17:27;-2.30;99.90
19586;DHT22;9939;49.246;9.106;2024-01-16T02:19:54;-2.20;99.90
19586;DHT22;9939;49.246;9.106;2024-01-16T02:22:24;-2.10;99.90
19586;DHT22;9939;49.246;9.106;2024-01-16T02:24:52;-1.80;99.90
19586;DHT22;9939;49.246;9.106;2024-01-16T02:27:19;-1.80;99.90
19586;DHT22;9939;49.246;9.106;2024-01-16T02:29:46;-1.70;99.90
19586;DHT22;9939;49.246;9.106;2024-01-16T02:32:13;-1.70;99.90
19586;DHT22;9939;49.246;9.106;2024-01-16T02:34:41;-1.70;99.90
19586;DHT22;9939;49.246;9.106;2024-01-16T02:37:08;-1.60;99.90
19586;DHT22;9939;49.246;9.106;2024-01-16T02:39:35;-1.60;99.90
19586;DHT22;9939;49.246;9.106;2024-01-16T02:42:02;-1.50;99.90
19586;DHT22;9939;49.246;9.106;2024-01-16T02:44:29;-1.50;99.90
19586;DHT22;9939;49.246;9.106;2024-01-16T02:46:56;-1.50;99.90
19586;DHT22;9939;49.246;9.106;2024-01-16T02:49:23;-1.40;99.90
19586;DHT22;9939;49.246;9.106;2024-01-16T02:51:53;-1.30;99.90
19586;DHT22;9939;49.246;9.106;2024-01-16T02:54:22;-1.40;99.90
19586;DHT22;9939;49.246;9.106;2024-01-16T02:56:49;-1.30;99.90
19586;DHT22;9939;49.246;9.106;2024-01-16T02:59:16;-1.30;99.90
19586;DHT22;9939;49.246;9.106;2024-01-16T03:01:44;-1.20;99.90
19586;DHT22;9939;49.246;9.106;2024-01-16T03:04:11;-1.20;99.90
19586;DHT22;9939;49.246;9.106;2024-01-16T03:06:38;-1.20;99.90
19586;DHT22;9939;49.246;9.106;2024-01-16T03:09:05;-1.10;99.90
19586;DHT22;9939;49.246;9.106;2024-01-16T03:11:33;-1.20;99.90
19586;DHT22;9939;49.246;9.106;2024-01-16T03:14:00;-1.10;99.90
19586;DHT22;9939;49.246;9.106;2024-01-16T03:16:27;-1.00;99.90
19586;DHT22;9939;49.246;9.106;2024-01-16T03:18:54;-1.00;99.90
19586;DHT22;9939;49.246;9.106;2024-01-16T03:21:22;-1.10;99.90
19586;DHT22;9939;49.246;9.106;2024-01-16T03:23:49;-1.10;99.90
19586;DHT22;9939;49.246;9.106;2024-01-16T03:26:17;-1.10;99.90
19586;DHT22;9939;49.246;9.106;2024-01-16T03:28:44;-1.10;99.90
19586;DHT22;9939;49.246;9.106;2024-01-16T03:31:15;-1.20;99.90
19586;DHT22;9939;49.246;9.106;2024-01-16T03:33:42;-1.20;99.90
19586;DHT22;9939;49.246;9.106;2024-01-16T03:36:10;-1.20;99.90
19586;DHT22;9939;49.246;9.106;2024-01-16T03:38:39;-1.20;99.90
19586;DHT22;9939;49.246;9.106;2024-01-16T03:41:07;-1.30;99.90
19586;DHT22;9939;49.246;9.106;2024-01-16T03:43:35;-1.30;99.90
19586;DHT22;9939;49.246;9.106;2024-01-16T03:46:02;-1.40;99.90
19586;DHT22;9939;49.246;9.106;2024-01-16T03:48:29;-1.50;99.90
19586;DHT22;9939;49.246;9.106;2024-01-16T03:50:57;-1.40;99.90
19586;DHT22;9939;49.246;9.106;2024-01-16T03:53:24;-1.40;99.90
19586;DHT22;9939;49.246;9.106;2024-01-16T03:55:51;-1.40;99.90
19586;DHT22;9939;49.246;9.106;2024-01-16T03:58:18;-1.50;99.90
19586;DHT22;9939;49.246;9.106;2024-01-16T04:00:46;-1.50;99.90
19586;DHT22;9939;49.246;9.106;2024-01-16T04:03:13;-1.50;99.90
19586;DHT22;9939;49.246;9.106;2024-01-16T04:05:40;-1.50;99.90
19586;DHT22;9939;49.246;9.106;2024-01-16T04:08:07;-1.50;99.90
19586;DHT22;9939;49.246;9.106;2024-01-16T04:10:35;-1.40;99.90
19586;DHT22;9939;49.246;9.106;2024-01-16T04:13:03;-1.40;99.90
19586;DHT22;9939;49.246;9.106;2024-01-16T04:15:30;-1.50;99.90
19586;DHT22;9939;49.246;9.106;2024-01-16T04:17:57;-1.50;99.90
19586;DHT22;9939;49.246;9.106;2024-01-16T04:20:24;-1.60;99.90
19586;DHT22;9939;49.246;9.106;2024-01-16T04:22:51;-1.60;99.90
19586;DHT22;9939;49.246;9.106;2024-01-16T04:25:18;-1.60;99.90
19586;DHT22;9939;49.246;9.106;2024-01-16T04:27:45;-1.60;99.90
19586;DHT22;9939;49.246;9.106;2024-01-16T04:30:13;-1.60;99.90
19586;DHT22;9939;49.246;9.106;2024-01-16T04:32:40;-1.60;99.90
19586;DHT22;9939;49.246;9.106;2024-01-16T04:35:08;-1.70;99.90
19586;DHT22;9939;49.246;9.106;2024-01-16T04:37:35;-1.60;99.90
19586;DHT22;9939;49.246;9.106;2024-01-16T04:40:02;-1.50;99.90
19586;DHT22;9939;49.246;9.106;2024-01-16T04:42:32;-1.50;99.90
19586;DHT22;9939;49.246;9.106;2024-01-16T04:44:59;-1.50;99.90
19586;DHT22;9939;49.246;9.106;2024-01-16T04:47:26;-1.40;99.90
19586;DHT22;9939;49.246;9.106;2024-01-16T04:49:54;-1.40;99.90
19586;DHT22;9939;49.246;9.106;2024-01-16T04:52:21;-1.40;99.90
19586;DHT22;9939;49.246;9.106;2024-01-16T04:54:48;-1.40;99.90
19586;DHT22;9939;49.246;9.106;2024-01-16T04:57:15;-1.40;99.90
19586;DHT22;9939;49.246;9.106;2024-01-16T04:59:42;-1.50;99.90
19586;DHT22;9939;49.246;9.106;2024-01-16T05:02:09;-1.30;99.90
19586;DHT22;9939;49.246;9.106;2024-01-16T05:04:39;-1.40;99.90
19586;DHT22;9939;49.246;9.106;2024-01-16T05:07:06;-1.30;99.90
19586;DHT22;9939;49.246;9.106;2024-01-16T05:09:33;-1.20;99.90
19586;DHT22;9939;49.246;9.106;2024-01-16T05:12:01;-1.30;99.90
19586;DHT22;9939;49.246;9.106;2024-01-16T05:14:28;-1.30;99.90
19586;DHT22;9939;49.246;9.106;2024-01-16T05:16:55;-1.30;99.90
19586;DHT22;9939;49.246;9.106;2024-01-16T05:19:22;-1.30;99.90
19586;DHT22;9939;49.246;9.106;2024-01-16T05:21:49;-1.30;99.90
19586;DHT22;9939;49.246;9.106;2024-01-16T05:24:16;-1.40;99.90
19586;DHT22;9939;49.246;9.106;2024-01-16T05:26:43;-1.50;99.90
19586;DHT22;9939;49.246;9.106;2024-01-16T05:29:10;-1.50;99.90
19586;DHT22;9939;49.246;9.106;2024-01-16T05:31:42;-1.50;99.90
19586;DHT22;9939;49.246;9.106;2024-01-16T05:34:09;-1.60;99.90
19586;DHT22;9939;49.246;9.106;2024-01-16T05:36:37;-1.50;99.90
19586;DHT22;9939;49.246;9.106;2024-01-16T05:39:04;-1.50;99.90
19586;DHT22;9939;49.246;9.106;2024-01-16T05:41:34;-1.50;99.90
19586;DHT22;9939;49.246;9.106;2024-01-16T05:44:02;-1.50;99.90
19586;DHT22;9939;49.246;9.106;2024-01-16T05:46:32;-1.40;99.90
19586;DHT22;9939;49.246;9.106;2024-01-16T05:49:00;-1.70;99.90
19586;DHT22;9939;49.246;9.106;2024-01-16T05:51:28;-1.60;99.90
19586;DHT22;9939;49.246;9.106;2024-01-16T05:53:56;-1.60;99.90
19586;DHT22;9939;49.246;9.106;2024-01-16T05:56:23;-1.70;99.90
19586;DHT22;9939;49.246;9.106;2024-01-16T05:58:50;-1.90;99.90
19586;DHT22;9939;49.246;9.106;2024-01-16T06:01:19;-2.10;99.90
19586;DHT22;9939;49.246;9.106;2024-01-16T06:03:46;-2.10;99.90
19586;DHT22;9939;49.246;9.106;2024-01-16T06:06:16;-2.10;99.90
19586;DHT22;9939;49.246;9.106;2024-01-16T06:08:43;-2.20;99.90
19586;DHT22;9939;49.246;9.106;2024-01-16T06:11:11;-2.00;99.90
19586;DHT22;9939;49.246;9.106;2024-01-16T06:13:40;-2.10;99.90
19586;DHT22;9939;49.246;9.106;2024-01-16T06:16:07;-2.20;99.90
19586;DHT22;9939;49.246;9.106;2024-01-16T06:18:37;-2.20;99.90
19586;DHT22;9939;49.246;9.106;2024-01-16T06:21:04;-2.20;99.90
19586;DHT22;9939;49.246;9.106;2024-01-16T06:23:31;-2.20;99.90
19586;DHT22;9939;49.246;9.106;2024-01-16T06:26:00;-2.20;99.90
19586;DHT22;9939;49.246;9.106;2024-01-16T06:28:27;-2.30;99.90
19586;DHT22;9939;49.246;9.106;2024-01-16T06:30:57;-2.20;99.90
19586;DHT22;9939;49.246;9.106;2024-01-16T06:33:25;-2.20;99.90
19586;DHT22;9939;49.246;9.106;2024-01-16T06:35:55;-2.20;99.90
19586;DHT22;9939;49.246;9.106;2024-01-16T06:38:22;-2.20;99.90
19586;DHT22;9939;49.246;9.106;2024-01-16T06:40:49;-2.20;99.90
19586;DHT22;9939;49.246;9.106;2024-01-16T06:43:16;-2.10;99.90
19586;DHT22;9939;49.246;9.106;2024-01-16T06:45:43;-2.10;99.90
19586;DHT22;9939;49.246;9.106;2024-01-16T06:48:11;-2.10;99.90
19586;DHT22;9939;49.246;9.106;2024-01-16T06:50:38;-2.00;99.90
19586;DHT22;9939;49.246;9.106;2024-01-16T06:53:05;-2.00;99.90
19586;DHT22;9939;49.246;9.106;2024-01-16T06:55:33;-2.10;99.90
19586;DHT22;9939;49.246;9.106;2024-01-16T06:58:00;-2.10;99.90
19586;DHT22;9939;49.246;9.106;2024-01-16T07:00:27;-2.00;99.90
19586;DHT22;9939;49.246;9.106;2024-01-16T07:02:54;-2.00;99.90
19586;DHT22;9939;49.246;9.106;2024-01-16T07:05:21;-2.00;99.90
19586;DHT22;9939;49.246;9.106;2024-01-16T07:07:49;-2.00;99.90
19586;DHT22;9939;49.246;9.106;2024-01-16T07:10:16;-2.00;99.90
19586;DHT22;9939;49.246;9.106;2024-01-16T07:12:48;-1.90;99.90
19586;DHT22;9939;49.246;9.106;2024-01-16T07:15:16;-2.00;99.90
19586;DHT22;9939;49.246;9.106;2024-01-16T07:17:43;-2.00;99.90
19586;DHT22;9939;49.246;9.106;2024-01-16T07:20:10;-2.00;99.90
19586;DHT22;9939;49.246;9.106;2024-01-16T07:22:37;-2.00;99.90
19586;DHT22;9939;49.246;9.106;2024-01-16T07:25:07;-1.90;99.90
19586;DHT22;9939;49.246;9.106;2024-01-16T07:27:34;-2.00;99.90
19586;DHT22;9939;49.246;9.106;2024-01-16T07:30:04;-2.00;99.90
19586;DHT22;9939;49.246;9.106;2024-01-16T07:32:32;-2.00;99.90
19586;DHT22;9939;49.246;9.106;2024-01-16T07:34:59;-2.10;99.90
19586;DHT22;9939;49.246;9.106;2024-01-16T07:37:26;-2.20;99.90
19586;DHT22;9939;49.246;9.106;2024-01-16T07:39:53;-2.20;99.90
19586;DHT22;9939;49.246;9.106;2024-01-16T07:42:20;-2.00;99.90
19586;DHT22;9939;49.246;9.106;2024-01-16T07:44:47;-2.00;99.90
19586;DHT22;9939;49.246;9.106;2024-01-16T07:47:14;-2.00;99.90
19586;DHT22;9939;49.246;9.106;2024-01-16T07:49:41;-2.00;99.90
19586;DHT22;9939;49.246;9.106;2024-01-16T07:52:09;-2.00;99.90
19586;DHT22;9939;49.246;9.106;2024-01-16T07:54:36;-1.90;99.90
19586;DHT22;9939;49.246;9.106;2024-01-16T07:57:03;-1.90;99.90
19586;DHT22;9939;49.246;9.106;2024-01-16T07:59:30;-1.90;99.90
19586;DHT22;9939;49.246;9.106;2024-01-16T08:01:57;-2.00;99.90
19586;DHT22;9939;49.246;9.106;2024-01-16T08:04:24;-1.90;99.90
19586;DHT22;9939;49.246;9.106;2024-01-16T08:06:52;-1.80;99.90
19586;DHT22;9939;49.246;9.106;2024-01-16T08:09:19;-1.80;99.90
19586;DHT22;9939;49.246;9.106;2024-01-16T08:11:47;-1.80;99.90
19586;DHT22;9939;49.246;9.106;2024-01-16T08:14:14;-1.70;99.90
19586;DHT22;9939;49.246;9.106;2024-01-16T08:16:41;-1.60;99.90
19586;DHT22;9939;49.246;9.106;2024-01-16T08:19:08;-1.50;99.90
19586;DHT22;9939;49.246;9.106;2024-01-16T08:21:35;-1.60;99.90
19586;DHT22;9939;49.246;9.106;2024-01-16T08:24:03;-1.40;99.90
19586;DHT22;9939;49.246;9.106;2024-01-16T08:26:30;-1.40;99.90
19586;DHT22;9939;49.246;9.106;2024-01-16T08:28:58;-1.50;99.90
19586;DHT22;9939;49.246;9.106;2024-01-16T08:31:25;-1.40;99.90
19586;DHT22;9939;49.246;9.106;2024-01-16T08:33:52;-1.30;99.90
19586;DHT22;9939;49.246;9.106;2024-01-16T08:36:22;-1.20;99.90
19586;DHT22;9939;49.246;9.106;2024-01-16T08:38:49;-1.10;99.90
19586;DHT22;9939;49.246;9.106;2024-01-16T08:41:17;-1.00;99.90
19586;DHT22;9939;49.246;9.106;2024-01-16T08:43:44;-0.80;99.90
19586;DHT22;9939;49.246;9.106;2024-01-16T08:46:11;-0.60;99.90
19586;DHT22;9939;49.246;9.106;2024-01-16T08:48:38;-0.50;99.90
19586;DHT22;9939;49.246;9.106;2024-01-16T08:51:11;-0.30;99.90
19586;DHT22;9939;49.246;9.106;2024-01-16T08:53:41;-0.10;99.90
19586;DHT22;9939;49.246;9.106;2024-01-16T08:56:09;-0.10;99.90
19586;DHT22;9939;49.246;9.106;2024-01-16T08:58:36;0.00;99.90
19586;DHT22;9939;49.246;9.106;2024-01-16T09:01:05;0.20;99.90
19586;DHT22;9939;49.246;9.106;2024-01-16T09:03:35;0.20;99.90
19586;DHT22;9939;49.246;9.106;2024-01-16T09:06:03;0.10;99.90
19586;DHT22;9939;49.246;9.106;2024-01-16T09:08:30;0.20;99.90
19586;DHT22;9939;49.246;9.106;2024-01-16T09:10:58;0.50;99.90
19586;DHT22;9939;49.246;9.106;2024-01-16T09:13:25;0.60;99.90
19586;DHT22;9939;49.246;9.106;2024-01-16T09:15:52;0.60;99.90
19586;DHT22;9939;49.246;9.106;2024-01-16T09:18:19;0.40;99.90
19586;DHT22;9939;49.246;9.106;2024-01-16T09:20:46;0.20;99.90
19586;DHT22;9939;49.246;9.106;2024-01-16T09:23:15;0.50;99.90
19586;DHT22;9939;49.246;9.106;2024-01-16T09:25:42;0.80;99.90
19586;DHT22;9939;49.246;9.106;2024-01-16T09:28:11;1.10;99.90
19586;DHT22;9939;49.246;9.106;2024-01-16T09:30:38;1.40;99.90
19586;DHT22;9939;49.246;9.106;2024-01-16T09:33:05;1.60;99.90
19586;DHT22;9939;49.246;9.106;2024-01-16T09:35:34;1.40;99.90
19586;DHT22;9939;49.246;9.106;2024-01-16T09:38:01;1.70;99.90
19586;DHT22;9939;49.246;9.106;2024-01-16T09:40:28;2.00;99.90
19586;DHT22;9939;49.246;9.106;2024-01-16T09:42:55;1.60;99.90
19586;DHT22;9939;49.246;9.106;2024-01-16T09:45:23;1.80;99.90
19586;DHT22;9939;49.246;9.106;2024-01-16T09:47:51;2.10;99.90
19586;DHT22;9939;49.246;9.106;2024-01-16T09:50:19;2.10;99.90
19586;DHT22;9939;49.246;9.106;2024-01-16T09:52:47;2.40;99.90
19586;DHT22;9939;49.246;9.106;2024-01-16T09:55:15;2.80;99.90
19586;DHT22;9939;49.246;9.106;2024-01-16T09:57:45;2.70;99.90
19586;DHT22;9939;49.246;9.106;2024-01-16T10:00:13;2.80;99.90
19586;DHT22;9939;49.246;9.106;2024-01-16T10:02:41;3.40;99.90
19586;DHT22;9939;49.246;9.106;2024-01-16T10:05:10;3.40;99.90
19586;DHT22;9939;49.246;9.106;2024-01-16T10:07:41;2.80;99.90
19586;DHT22;9939;49.246;9.106;2024-01-16T10:10:11;2.80;99.90
19586;DHT22;9939;49.246;9.106;2024-01-16T10:12:39;3.20;99.90
19586;DHT22;9939;49.246;9.106;2024-01-16T10:15:07;3.30;99.90
19586;DHT22;9939;49.246;9.106;2024-01-16T10:17:38;3.50;99.90
19586;DHT22;9939;49.246;9.106;2024-01-16T10:20:11;3.20;99.90
19586;DHT22;9939;49.246;9.106;2024-01-16T10:22:53;3.20;99.90
19586;DHT22;9939;49.246;9.106;2024-01-16T10:25:20;3.20;99.90
19586;DHT22;9939;49.246;9.106;2024-01-16T10:27:49;3.10;99.90
19586;DHT22;9939;49.246;9.106;2024-01-16T10:30:21;2.70;99.90
19586;DHT22;9939;49.246;9.106;2024-01-16T10:32:49;2.90;99.90
19586;DHT22;9939;49.246;9.106;2024-01-16T10:35:16;3.10;99.90
19586;DHT22;9939;49.246;9.106;2024-01-16T10:40:17;3.10;99.90
19586;DHT22;9939;49.246;9.106;2024-01-16T10:43:05;2.80;99.90
19586;DHT22;9939;49.246;9.106;2024-01-16T10:45:33;3.00;99.90
19586;DHT22;9939;49.246;9.106;2024-01-16T10:48:09;3.30;99.90
19586;DHT22;9939;49.246;9.106;2024-01-16T10:50:37;3.50;99.90
19586;DHT22;9939;49.246;9.106;2024-01-16T10:53:07;3.20;99.90
19586;DHT22;9939;49.246;9.106;2024-01-16T10:55:53;2.90;99.90
19586;DHT22;9939;49.246;9.106;2024-01-16T10:58:24;3.00;99.90
19586;DHT22;9939;49.246;9.106;2024-01-16T11:00:57;3.30;99.90
19586;DHT22;9939;49.246;9.106;2024-01-16T11:03:35;3.50;99.90
19586;DHT22;9939;49.246;9.106;2024-01-16T11:06:06;3.30;99.90
19586;DHT22;9939;49.246;9.106;2024-01-16T11:08:37;3.40;99.90
19586;DHT22;9939;49.246;9.106;2024-01-16T11:11:06;3.60;99.90
19586;DHT22;9939;49.246;9.106;2024-01-16T11:13:35;3.80;99.90
19586;DHT22;9939;49.246;9.106;2024-01-16T11:16:03;3.70;99.90
19586;DHT22;9939;49.246;9.106;2024-01-16T11:18:32;3.60;99.90
19586;DHT22;9939;49.246;9.106;2024-01-16T11:21:11;3.80;99.90
19586;DHT22;9939;49.246;9.106;2024-01-16T11:23:44;4.10;99.90
19586;DHT22;9939;49.246;9.106;2024-01-16T11:26:32;4.40;99.90
19586;DHT22;9939;49.246;9.106;2024-01-16T11:29:02;4.50;99.90
19586;DHT22;9939;49.246;9.106;2024-01-16T11:31:48;4.30;99.90
19586;DHT22;9939;49.246;9.106;2024-01-16T11:34:15;3.60;99.90
19586;DHT22;9939;49.246;9.106;2024-01-16T11:36:51;3.80;99.90
19586;DHT22;9939;49.246;9.106;2024-01-16T11:39:22;3.90;99.90
19586;DHT22;9939;49.246;9.106;2024-01-16T11:41:57;3.70;99.90
19586;DHT22;9939;49.246;9.106;2024-01-16T11:44:47;4.00;99.90
19586;DHT22;9939;49.246;9.106;2024-01-16T11:47:23;4.40;99.90
19586;DHT22;9939;49.246;9.106;2024-01-16T11:50:00;4.70;99.90
19586;DHT22;9939;49.246;9.106;2024-01-16T11:52:46;5.00;99.90
19586;DHT22;9939;49.246;9.106;2024-01-16T11:55:33;5.10;99.90
19586;DHT22;9939;49.246;9.106;2024-01-16T12:00:51;6.10;99.90
19586;DHT22;9939;49.246;9.106;2024-01-16T12:03:21;6.40;99.90
19586;DHT22;9939;49.246;9.106;2024-01-16T12:06:01;6.20;99.90
19586;DHT22;9939;49.246;9.106;2024-01-16T12:08:30;5.80;99.90
19586;DHT22;9939;49.246;9.106;2024-01-16T12:10:57;5.80;99.90
19586;DHT22;9939;49.246;9.106;2024-01-16T12:13:25;6.00;99.90
19586;DHT22;9939;49.246;9.106;2024-01-16T12:16:01;5.50;99.90
19586;DHT22;9939;49.246;9.106;2024-01-16T12:18:28;5.60;99.90
19586;DHT22;9939;49.246;9.106;2024-01-16T12:21:11;5.60;99.90
19586;DHT22;9939;49.246;9.106;2024-01-16T12:23:40;5.70;99.90
19586;DHT22;9939;49.246;9.106;2024-01-16T12:26:24;5.30;99.90
19586;DHT22;9939;49.246;9.106;2024-01-16T12:28:55;5.20;99.90
19586;DHT22;9939;49.246;9.106;2024-01-16T12:31:27;5.30;99.90
19586;DHT22;9939;49.246;9.106;2024-01-16T12:34:05;5.10;99.90
19586;DHT22;9939;49.246;9.106;2024-01-16T12:36:35;5.60;99.90
19586;DHT22;9939;49.246;9.106;2024-01-16T12:39:03;5.70;99.90
19586;DHT22;9939;49.246;9.106;2024-01-16T12:41:34;5.70;99.90
19586;DHT22;9939;49.246;9.106;2024-01-16T12:44:09;4.70;99.90
19586;DHT22;9939;49.246;9.106;2024-01-16T12:46:55;4.40;99.90
19586;DHT22;9939;49.246;9.106;2024-01-16T12:49:23;4.70;99.90
19586;DHT22;9939;49.246;9.106;2024-01-16T12:51:51;4.80;99.90
19586;DHT22;9939;49.246;9.106;2024-01-16T12:54:38;4.30;99.90
19586;DHT22;9939;49.246;9.106;2024-01-16T12:57:06;4.10;99.90
19586;DHT22;9939;49.246;9.106;2024-01-16T12:59:33;3.90;99.90
19586;DHT22;9939;49.246;9.106;2024-01-16T13:02:00;4.00;99.90
19586;DHT22;9939;49.246;9.106;2024-01-16T13:04:27;4.00;99.90
19586;DHT22;9939;49.246;9.106;2024-01-16T13:07:05;4.00;99.90
19586;DHT22;9939;49.246;9.106;2024-01-16T13:09:33;4.10;99.90
19586;DHT22;9939;49.246;9.106;2024-01-16T13:12:00;4.10;99.90
19586;DHT22;9939;49.246;9.106;2024-01-16T13:14:27;3.70;99.90
19586;DHT22;9939;49.246;9.106;2024-01-16T13:16:54;3.60;99.90
19586;DHT22;9939;49.246;9.106;2024-01-16T13:19:24;3.50;99.90
19586;DHT22;9939;49.246;9.106;2024-01-16T13:21:53;3.60;99.90
19586;DHT22;9939;49.246;9.106;2024-01-16T13:24:20;3.70;99.90
19586;DHT22;9939;49.246;9.106;2024-01-16T13:26:50;3.60;99.90
19586;DHT22;9939;49.246;9.106;2024-01-16T13:29:18;3.40;99.90
19586;DHT22;9939;49.246;9.106;2024-01-16T13:31:46;3.20;99.90
19586;DHT22;9939;49.246;9.106;2024-01-16T13:34:13;3.10;99.90
19586;DHT22;9939;49.246;9.106;2024-01-16T13:36:41;3.20;99.90
19586;DHT22;9939;49.246;9.106;2024-01-16T13:39:13;3.50;99.90
19586;DHT22;9939;49.246;9.106;2024-01-16T13:41:42;3.50;99.90
19586;DHT22;9939;49.246;9.106;2024-01-16T13:44:10;3.40;99.90
19586;DHT22;9939;49.246;9.106;2024-01-16T13:46:37;3.40;99.90
19586;DHT22;9939;49.246;9.106;2024-01-16T13:49:07;3.50;99.90
19586;DHT22;9939;49.246;9.106;2024-01-16T13:51:34;3.60;99.90
19586;DHT22;9939;49.246;9.106;2024-01-16T13:54:01;3.70;99.90
19586;DHT22;9939;49.246;9.106;2024-01-16T13:56:28;3.80;99.90
19586;DHT22;9939;49.246;9.106;2024-01-16T13:59:15;4.10;99.90
19586;DHT22;9939;49.246;9.106;2024-01-16T14:01:42;4.40;99.90
19586;DHT22;9939;49.246;9.106;2024-01-16T14:04:09;4.50;99.90
19586;DHT22;9939;49.246;9.106;2024-01-16T14:06:36;4.60;99.90
19586;DHT22;9939;49.246;9.106;2024-01-16T14:09:23;4.70;99.90
19586;DHT22;9939;49.246;9.106;2024-01-16T14:11:50;4.40;99.90
19586;DHT22;9939;49.246;9.106;2024-01-16T14:14:17;4.50;99.90
19586;DHT22;9939;49.246;9.106;2024-01-16T14:16:44;4.30;99.90
19586;DHT22;9939;49.246;9.106;2024-01-16T14:19:23;4.30;99.90
19586;DHT22;9939;49.246;9.106;2024-01-16T14:21:54;4.10;99.90
19586;DHT22;9939;49.246;9.106;2024-01-16T14:24:21;3.90;99.90
19586;DHT22;9939;49.246;9.106;2024-01-16T14:26:48;3.70;99.90
19586;DHT22;9939;49.246;9.106;2024-01-16T14:29:15;3.60;99.90
19586;DHT22;9939;49.246;9.106;2024-01-16T14:31:43;3.70;99.90
19586;DHT22;9939;49.246;9.106;2024-01-16T14:34:11;3.50;99.90
19586;DHT22;9939;49.246;9.106;2024-01-16T14:36:40;3.20;99.90
19586;DHT22;9939;49.246;9.106;2024-01-16T14:39:08;3.30;99.90
19586;DHT22;9939;49.246;9.106;2024-01-16T14:41:40;3.40;99.90
19586;DHT22;9939;49.246;9.106;2024-01-16T14:44:09;3.50;99.90
19586;DHT22;9939;49.246;9.106;2024-01-16T14:46:36;3.20;99.90
19586;DHT22;9939;49.246;9.106;2024-01-16T14:49:04;3.10;99.90
19586;DHT22;9939;49.246;9.106;2024-01-16T14:51:31;3.00;99.90
19586;DHT22;9939;49.246;9.106;2024-01-16T14:53:58;2.80;99.90
19586;DHT22;9939;49.246;9.106;2024-01-16T14:56:28;2.80;99.90
19586;DHT22;9939;49.246;9.106;2024-01-16T14:58:57;2.90;99.90
19586;DHT22;9939;49.246;9.106;2024-01-16T15:01:24;2.70;99.90
19586;DHT22;9939;49.246;9.106;2024-01-16T15:03:51;2.70;99.90
19586;DHT22;9939;49.246;9.106;2024-01-16T15:06:18;2.40;99.90
19586;DHT22;9939;49.246;9.106;2024-01-16T15:08:45;2.20;99.90
19586;DHT22;9939;49.246;9.106;2024-01-16T15:11:15;2.00;99.90
19586;DHT22;9939;49.246;9.106;2024-01-16T15:13:44;2.00;99.90
19586;DHT22;9939;49.246;9.106;2024-01-16T15:16:11;2.00;99.90
19586;DHT22;9939;49.246;9.106;2024-01-16T15:18:38;1.70;99.90
19586;DHT22;9939;49.246;9.106;2024-01-16T15:21:05;1.60;99.90
19586;DHT22;9939;49.246;9.106;2024-01-16T15:23:32;1.30;99.90
19586;DHT22;9939;49.246;9.106;2024-01-16T15:25:59;1.00;99.90
19586;DHT22;9939;49.246;9.106;2024-01-16T15:28:32;0.80;99.90
19586;DHT22;9939;49.246;9.106;2024-01-16T15:31:00;0.60;99.90
19586;DHT22;9939;49.246;9.106;2024-01-16T15:33:34;0.40;99.90
19586;DHT22;9939;49.246;9.106;2024-01-16T15:36:03;0.10;99.90
19586;DHT22;9939;49.246;9.106;2024-01-16T15:38:31;0.00;99.90
19586;DHT22;9939;49.246;9.106;2024-01-16T15:40:58;-0.10;99.90
19586;DHT22;9939;49.246;9.106;2024-01-16T15:43:25;-0.30;99.90
19586;DHT22;9939;49.246;9.106;2024-01-16T15:45:53;-0.50;99.90
19586;DHT22;9939;49.246;9.106;2024-01-16T15:48:20;-0.70;99.90
19586;DHT22;9939;49.246;9.106;2024-01-16T15:50:47;-0.90;99.90
19586;DHT22;9939;49.246;9.106;2024-01-16T15:53:14;-0.90;99.90
19586;DHT22;9939;49.246;9.106;2024-01-16T15:55:43;-1.20;99.90
19586;DHT22;9939;49.246;9.106;2024-01-16T15:58:10;-1.50;99.90
19586;DHT22;9939;49.246;9.106;2024-01-16T16:00:37;-1.60;99.90
19586;DHT22;9939;49.246;9.106;2024-01-16T16:03:05;-1.80;99.90
19586;DHT22;9939;49.246;9.106;2024-01-16T16:05:33;-1.90;99.90
19586;DHT22;9939;49.246;9.106;2024-01-16T16:08:01;-2.00;99.90